createdAt,value
2019-03-20T00:01:25.704Z,6.00
2019-03-20T00:03:56.192Z,5.00
2019-03-20T00:06:30.136Z,5.60
2019-03-20T00:09:04.040Z,5.00
2019-03-20T00:11:36.759Z,5.67
2019-03-20T00:14:07.254Z,5.40
2019-03-20T00:16:39.533Z,5.70
2019-03-20T00:19:13.122Z,5.13
2019-03-20T00:22:02.891Z,5.37
2019-03-20T00:24:33.443Z,5.30
2019-03-20T00:27:06.337Z,5.30
2019-03-20T00:29:55.074Z,5.03
2019-03-20T00:32:28.590Z,5.20
2019-03-20T00:35:01.592Z,11.63
2019-03-20T00:37:35.568Z,5.37
2019-03-20T00:40:11.702Z,5.47
2019-03-20T00:42:44.468Z,5.63
2019-03-20T00:45:15.931Z,5.57
2019-03-20T00:47:48.191Z,4.47
2019-03-20T00:50:20.648Z,5.77
2019-03-20T00:52:53.456Z,5.63
2019-03-20T00:55:27.771Z,6.10
2019-03-20T01:04:30.831Z,5.27
2019-03-20T01:07:20.491Z,4.97
2019-03-20T01:09:53.435Z,5.50
2019-03-20T01:12:26.384Z,5.50
2019-03-20T01:15:00.350Z,5.87
2019-03-20T01:17:42.679Z,6.17
2019-03-20T01:20:17.338Z,5.30
2019-03-20T01:22:50.857Z,4.60
2019-03-20T01:25:23.636Z,5.77
2019-03-20T01:27:57.091Z,5.53
2019-03-20T01:30:34.525Z,6.07
2019-03-20T01:33:12.015Z,5.03
2019-03-20T01:35:44.835Z,5.30
2019-03-20T01:38:19.421Z,5.33
2019-03-20T01:40:52.535Z,5.07
2019-03-20T01:43:25.399Z,4.80
2019-03-20T01:46:01.015Z,5.10
2019-03-20T01:48:32.773Z,5.33
2019-03-20T01:51:20.988Z,5.10
2019-03-20T01:53:53.874Z,5.03
2019-03-20T01:56:26.808Z,5.53
2019-03-20T01:59:15.278Z,4.33
2019-03-20T02:02:06.090Z,5.40
2019-03-20T02:04:37.944Z,4.43
2019-03-20T02:07:09.015Z,4.90
2019-03-20T02:09:40.055Z,4.90
2019-03-20T02:12:29.329Z,4.50
2019-03-20T02:15:02.929Z,4.60
2019-03-20T02:17:34.966Z,4.30
2019-03-20T02:20:11.707Z,4.63
2019-03-20T02:22:45.079Z,4.70
2019-03-20T02:25:21.274Z,4.10
2019-03-20T02:27:52.979Z,4.47
2019-03-20T02:30:26.625Z,4.83
2019-03-20T02:33:15.405Z,4.40
2019-03-20T02:36:00.694Z,4.60
2019-03-20T02:38:33.329Z,4.60
2019-03-20T02:41:06.656Z,4.40
2019-03-20T02:43:39.968Z,4.43
2019-03-20T02:46:15.357Z,4.80
2019-03-20T02:48:47.799Z,4.23
2019-03-20T02:51:20.071Z,4.90
2019-03-20T02:53:54.819Z,4.63
2019-03-20T02:56:27.160Z,4.97
2019-03-20T02:59:01.078Z,5.40
2019-03-20T03:01:41.180Z,5.53
2019-03-20T03:04:16.461Z,4.90
2019-03-20T03:07:00.768Z,4.90
2019-03-20T03:09:32.056Z,5.23
2019-03-20T03:12:05.456Z,4.03
2019-03-20T03:14:37.138Z,5.20
2019-03-20T03:17:08.034Z,5.30
2019-03-20T03:19:41.431Z,5.50
2019-03-20T03:22:17.074Z,5.40
2019-03-20T03:24:49.665Z,4.90
2019-03-20T03:27:20.492Z,5.30
2019-03-20T03:29:53.902Z,5.33
2019-03-20T03:32:31.445Z,5.57
2019-03-20T03:35:04.018Z,5.70
2019-03-20T03:37:36.241Z,5.00
2019-03-20T03:40:09.550Z,4.93
2019-03-20T03:42:42.155Z,5.80
2019-03-20T03:45:15.082Z,5.73
2019-03-20T03:47:49.019Z,5.53
2019-03-20T03:50:20.604Z,5.07
2019-03-20T03:52:51.103Z,5.57
2019-03-20T03:55:23.552Z,6.00
2019-03-20T03:57:57.412Z,5.40
2019-03-20T04:00:46.481Z,6.40
2019-03-20T04:03:29.127Z,5.70
2019-03-20T04:05:59.610Z,6.40
2019-03-20T04:08:33.219Z,5.90
2019-03-20T04:11:06.255Z,6.50
2019-03-20T04:13:55.560Z,6.17
2019-03-20T04:16:32.199Z,5.77
2019-03-20T04:19:05.208Z,6.27
2019-03-20T04:21:39.488Z,6.40
2019-03-20T04:24:27.861Z,5.67
2019-03-20T04:27:01.301Z,6.10
2019-03-20T04:29:35.278Z,6.10
2019-03-20T04:32:08.489Z,6.07
2019-03-20T04:34:41.339Z,5.50
2019-03-20T04:37:14.114Z,5.97
2019-03-20T04:39:48.397Z,6.67
2019-03-20T04:42:20.304Z,5.60
2019-03-20T04:44:53.053Z,6.03
2019-03-20T04:47:23.552Z,6.87
2019-03-20T04:49:58.412Z,7.03
2019-03-20T04:52:30.804Z,4.80
2019-03-20T04:55:03.644Z,5.80
2019-03-20T04:57:37.772Z,6.40
2019-03-20T05:00:11.774Z,5.50
2019-03-20T05:02:44.293Z,5.83
2019-03-20T05:05:18.723Z,6.20
2019-03-20T05:07:50.473Z,6.07
2019-03-20T05:10:23.802Z,5.67
2019-03-20T05:12:57.547Z,6.60
2019-03-20T05:15:46.569Z,6.67
2019-03-20T05:18:20.369Z,6.63
2019-03-20T05:20:52.849Z,6.07
2019-03-20T05:23:23.712Z,5.40
2019-03-20T05:25:57.744Z,6.33
2019-03-20T05:28:28.782Z,6.50
2019-03-20T05:31:00.469Z,6.40
2019-03-20T05:33:31.833Z,6.77
2019-03-20T05:36:09.935Z,5.40
2019-03-20T05:38:44.418Z,6.47
2019-03-20T05:41:14.944Z,6.73
2019-03-20T05:43:47.781Z,6.27
2019-03-20T05:46:22.492Z,5.90
2019-03-20T05:48:54.587Z,5.20
2019-03-20T05:51:28.924Z,6.23
2019-03-20T05:53:59.405Z,6.67
2019-03-20T05:56:30.765Z,6.67
2019-03-20T05:59:03.397Z,6.90
2019-03-20T06:01:38.478Z,6.97
2019-03-20T06:04:12.331Z,6.50
2019-03-20T06:06:45.366Z,6.60
2019-03-20T06:09:18.506Z,7.00
2019-03-20T06:11:53.492Z,7.00
2019-03-20T06:14:24.106Z,7.97
2019-03-20T06:17:00.252Z,7.47
2019-03-20T06:19:32.265Z,8.63
2019-03-20T06:22:03.278Z,6.97
2019-03-20T06:24:38.659Z,6.73
2019-03-20T06:27:09.385Z,6.90
2019-03-20T06:29:45.805Z,6.80
2019-03-20T06:32:18.329Z,6.43
2019-03-20T06:34:49.100Z,6.50
2019-03-20T06:37:31.930Z,6.87
2019-03-20T06:40:16.515Z,8.60
2019-03-20T06:43:06.596Z,6.53
2019-03-20T06:45:45.509Z,6.37
2019-03-20T06:48:20.586Z,5.70
2019-03-20T06:50:57.470Z,6.87
2019-03-20T06:53:31.501Z,5.23
2019-03-20T06:56:06.201Z,5.60
2019-03-20T06:58:39.913Z,7.03
2019-03-20T07:01:26.235Z,6.37
2019-03-20T07:04:11.315Z,5.63
2019-03-20T07:07:15.272Z,10.30
2019-03-20T07:10:11.590Z,7.07
2019-03-20T07:12:45.524Z,7.00
2019-03-20T07:15:19.200Z,6.87
2019-03-20T07:17:52.157Z,6.00
2019-03-20T07:20:30.158Z,6.67
2019-03-20T07:23:04.336Z,7.40
2019-03-20T07:25:38.188Z,7.73
2019-03-20T07:28:11.112Z,12.47
2019-03-20T07:30:45.203Z,7.63
2019-03-20T07:33:18.023Z,7.13
2019-03-20T07:36:06.658Z,5.70
2019-03-20T07:38:38.124Z,7.10
2019-03-20T07:41:11.487Z,6.60
2019-03-20T07:43:45.139Z,6.43
2019-03-20T07:46:19.147Z,6.60
2019-03-20T07:48:50.565Z,8.60
2019-03-20T07:51:23.261Z,6.37
2019-03-20T07:53:56.862Z,6.43
2019-03-20T07:56:29.965Z,6.03
2019-03-20T07:59:02.236Z,5.90
2019-03-20T08:01:37.470Z,6.97
2019-03-20T08:04:10.120Z,5.00
2019-03-20T08:06:42.507Z,5.70
2019-03-20T08:09:20.352Z,6.83
2019-03-20T08:11:54.345Z,6.87
2019-03-20T08:14:28.575Z,5.37
2019-03-20T08:17:02.878Z,6.73
2019-03-20T08:19:37.537Z,6.00
2019-03-20T08:22:10.484Z,7.90
2019-03-20T08:24:41.605Z,6.47
2019-03-20T08:27:23.011Z,6.63
2019-03-20T08:29:53.507Z,6.60
2019-03-20T08:32:27.605Z,6.30
2019-03-20T08:35:16.247Z,6.53
2019-03-20T08:37:49.709Z,5.60
2019-03-20T08:40:24.449Z,5.27
2019-03-20T08:43:02.984Z,5.87
2019-03-20T08:45:34.575Z,6.43
2019-03-20T08:48:15.853Z,5.80
2019-03-20T08:50:50.495Z,5.30
2019-03-20T08:53:39.352Z,4.77
2019-03-20T08:56:22.304Z,4.87
2019-03-20T08:59:02.557Z,5.23
2019-03-20T09:01:48.785Z,5.17
2019-03-20T09:04:23.941Z,4.27
2019-03-20T09:07:13.068Z,5.20
2019-03-20T09:09:59.616Z,4.13
2019-03-20T09:12:30.912Z,5.00
2019-03-20T09:15:03.432Z,4.70
2019-03-20T09:17:36.115Z,4.97
2019-03-20T09:20:12.819Z,6.60
2019-03-20T09:22:48.228Z,5.77
2019-03-20T09:25:19.216Z,5.30
2019-03-20T09:27:50.816Z,4.93
2019-03-20T09:30:25.775Z,4.83
2019-03-20T09:32:57.930Z,4.93
2019-03-20T09:35:31.004Z,3.83
2019-03-20T09:38:03.043Z,3.70
2019-03-20T09:40:36.181Z,2.93
2019-03-20T09:43:08.955Z,4.87
2019-03-20T09:45:41.690Z,3.33
2019-03-20T09:48:30.616Z,3.70
2019-03-20T09:51:04.079Z,3.50
2019-03-20T09:53:38.415Z,2.83
2019-03-20T09:56:11.850Z,3.63
2019-03-20T09:59:03.555Z,4.30
2019-03-20T10:01:38.612Z,5.33
2019-03-20T10:04:13.141Z,7.33
2019-03-20T10:06:43.973Z,8.43
2019-03-20T10:09:16.007Z,4.50
2019-03-20T10:12:06.654Z,4.90
2019-03-20T10:14:37.276Z,3.33
2019-03-20T10:17:10.416Z,4.20
2019-03-20T10:19:44.053Z,16.83
2019-03-20T10:22:19.977Z,13.23
2019-03-20T10:24:54.940Z,6.20
2019-03-20T10:27:46.438Z,4.10
2019-03-20T10:30:38.050Z,9.63
2019-03-20T10:33:09.289Z,5.17
2019-03-20T10:35:50.241Z,3.50
2019-03-20T10:38:18.697Z,4.17
2019-03-20T10:41:07.745Z,3.40
2019-03-20T10:43:58.479Z,3.50
2019-03-20T10:46:31.325Z,12.43
2019-03-20T10:49:06.212Z,7.77
2019-03-20T10:51:40.141Z,27.17
2019-03-20T10:54:13.440Z,27.70
2019-03-20T10:56:48.086Z,15.40
2019-03-20T10:59:22.198Z,23.90
2019-03-20T11:02:03.163Z,51.67
2019-03-20T11:04:37.287Z,44.30
2019-03-20T11:07:12.939Z,6.70
2019-03-20T11:09:46.502Z,7.30
2019-03-20T11:12:21.407Z,6.97
2019-03-20T11:14:53.603Z,5.87
2019-03-20T11:17:25.461Z,6.70
2019-03-20T11:19:58.199Z,6.50
2019-03-20T11:22:31.122Z,5.47
2019-03-20T11:25:04.800Z,4.37
2019-03-20T11:27:36.931Z,5.90
2019-03-20T11:30:22.003Z,6.50
2019-03-20T11:33:11.268Z,4.77
2019-03-20T11:35:43.428Z,5.47
2019-03-20T11:38:18.206Z,5.10
2019-03-20T11:40:50.392Z,5.30
2019-03-20T11:43:23.348Z,5.80
2019-03-20T11:45:55.408Z,11.00
2019-03-20T11:48:29.208Z,5.63
2019-03-20T11:51:00.437Z,11.57
2019-03-20T11:53:33.484Z,5.70
2019-03-20T11:56:07.163Z,7.07
2019-03-20T11:58:41.298Z,11.60
2019-03-20T12:01:30.390Z,5.10
2019-03-20T12:04:19.572Z,3.80
2019-03-20T12:07:08.646Z,5.03
2019-03-20T12:09:58.949Z,4.70
2019-03-20T12:12:48.448Z,4.90
2019-03-20T12:15:36.830Z,7.60
2019-03-20T12:18:27.251Z,4.60
2019-03-20T12:21:16.512Z,3.70
2019-03-20T12:24:06.093Z,4.07
2019-03-20T12:26:55.707Z,3.70
2019-03-20T12:29:45.017Z,3.53
2019-03-20T12:32:34.200Z,3.60
2019-03-20T12:35:23.008Z,5.33
2019-03-20T12:38:14.943Z,3.23
2019-03-20T12:41:02.648Z,3.67
2019-03-20T12:43:52.469Z,3.20
2019-03-20T12:46:42.132Z,6.07
2019-03-20T12:49:30.949Z,5.40
2019-03-20T12:52:19.977Z,6.20
2019-03-20T12:55:10.589Z,8.13
2019-03-20T12:58:01.954Z,5.17
2019-03-20T13:00:51.285Z,4.47
2019-03-20T13:03:40.243Z,3.80
2019-03-20T13:06:31.867Z,3.20
2019-03-20T13:09:21.388Z,2.60
2019-03-20T13:12:13.710Z,2.93
2019-03-20T13:15:03.280Z,2.70
2019-03-20T13:17:52.705Z,2.80
2019-03-20T13:20:41.791Z,4.10
2019-03-20T13:23:32.402Z,3.40
2019-03-20T13:26:21.684Z,2.83
2019-03-20T13:29:10.812Z,3.77
2019-03-20T13:31:59.921Z,3.70
2019-03-20T13:34:48.628Z,4.80
2019-03-20T13:37:37.571Z,8.30
2019-03-20T13:40:26.488Z,6.00
2019-03-20T13:43:15.718Z,4.53
2019-03-20T13:46:04.354Z,4.07
2019-03-20T13:48:56.452Z,4.50
2019-03-20T13:51:45.317Z,4.37
2019-03-20T13:54:33.830Z,4.53
2019-03-20T13:57:23.031Z,4.27
2019-03-20T14:00:19.675Z,4.47
2019-03-20T14:03:08.743Z,4.30
2019-03-20T14:05:57.760Z,4.03
2019-03-20T14:08:46.911Z,4.10
2019-03-20T14:11:36.291Z,4.30
2019-03-20T14:14:26.094Z,4.60
2019-03-20T14:17:14.987Z,4.10
2019-03-20T14:20:03.644Z,3.97
2019-03-20T14:22:52.814Z,4.00
2019-03-20T14:25:42.249Z,4.50
2019-03-20T14:28:31.719Z,3.40
2019-03-20T14:31:21.046Z,3.77
2019-03-20T14:34:10.006Z,4.23
2019-03-20T14:36:58.894Z,3.87
2019-03-20T14:39:47.354Z,3.50
2019-03-20T14:42:36.619Z,4.10
2019-03-20T14:45:26.090Z,5.03
2019-03-20T14:48:15.551Z,5.90
2019-03-20T14:51:04.316Z,3.57
2019-03-20T14:53:53.363Z,3.30
2019-03-20T14:56:42.389Z,3.10
2019-03-20T14:59:31.492Z,3.50
2019-03-20T15:02:20.524Z,3.50
2019-03-20T15:05:09.132Z,4.40
2019-03-20T15:07:57.835Z,4.63
2019-03-20T15:10:46.998Z,4.43
2019-03-20T15:13:36.068Z,3.70
2019-03-20T15:16:25.223Z,4.23
2019-03-20T15:19:14.234Z,3.37
2019-03-20T15:22:03.061Z,3.70
2019-03-20T15:24:52.396Z,3.90
2019-03-20T15:27:41.675Z,4.07
2019-03-20T15:30:31.012Z,3.40
2019-03-20T15:33:19.916Z,3.60
2019-03-20T15:36:10.481Z,4.47
2019-03-20T15:39:00.742Z,3.40
2019-03-20T15:41:49.739Z,4.87
2019-03-20T15:44:39.056Z,4.87
2019-03-20T15:47:29.325Z,3.80
2019-03-20T15:50:18.705Z,3.90
2019-03-20T15:53:10.611Z,4.60
2019-03-20T15:56:01.377Z,4.60
2019-03-20T15:58:50.420Z,3.80
2019-03-20T16:01:41.560Z,3.70
2019-03-20T16:04:30.734Z,4.10
2019-03-20T16:07:20.218Z,4.13
2019-03-20T16:10:12.067Z,4.33
2019-03-20T16:13:01.981Z,4.17
2019-03-20T16:15:51.700Z,10.73
2019-03-20T16:18:41.064Z,10.17
2019-03-20T16:21:30.075Z,4.73
2019-03-20T16:24:19.393Z,7.70
2019-03-20T16:27:08.868Z,4.40
2019-03-20T16:29:57.599Z,4.10
2019-03-20T16:32:47.031Z,4.30
2019-03-20T16:35:35.677Z,4.93
2019-03-20T16:38:24.807Z,4.20
2019-03-20T16:41:17.054Z,4.80
2019-03-20T16:44:04.883Z,4.40
2019-03-20T16:46:53.996Z,5.10
2019-03-20T16:49:42.865Z,4.40
2019-03-20T16:52:32.754Z,4.90
2019-03-20T16:55:21.859Z,4.83
2019-03-20T16:58:16.661Z,5.40
2019-03-20T17:01:06.146Z,5.47
2019-03-20T17:03:54.940Z,5.30
2019-03-20T17:06:43.785Z,5.00
2019-03-20T17:09:33.239Z,4.90
2019-03-20T17:12:22.380Z,5.10
2019-03-20T17:15:15.347Z,4.53
2019-03-20T17:18:04.860Z,5.60
2019-03-20T17:20:54.228Z,5.43
2019-03-20T17:23:43.212Z,5.10
2019-03-20T17:26:32.221Z,4.63
2019-03-20T17:29:21.783Z,5.30
2019-03-20T17:32:10.825Z,6.27
2019-03-20T17:35:00.660Z,7.03
2019-03-20T17:37:49.429Z,5.27
2019-03-20T17:40:38.233Z,5.10
2019-03-20T17:43:27.197Z,5.07
2019-03-20T17:46:17.440Z,6.07
2019-03-20T17:49:06.622Z,5.80
2019-03-20T17:51:55.882Z,5.30
2019-03-20T17:54:45.488Z,4.97
2019-03-20T17:57:34.635Z,5.10
2019-03-20T18:00:31.433Z,5.53
2019-03-20T18:03:20.904Z,5.13
2019-03-20T18:06:10.150Z,5.53
2019-03-20T18:08:59.102Z,5.57
2019-03-20T18:11:48.428Z,5.97
2019-03-20T18:14:37.942Z,5.70
2019-03-20T18:17:27.088Z,40.50
2019-03-20T18:20:15.843Z,55.30
2019-03-20T18:23:05.249Z,11.93
2019-03-20T18:25:54.501Z,6.67
2019-03-20T18:28:43.637Z,6.40
2019-03-20T18:31:32.175Z,6.30
2019-03-20T18:34:20.901Z,5.90
2019-03-20T18:37:09.905Z,5.93
2019-03-20T18:39:58.639Z,6.20
2019-03-20T18:42:48.298Z,6.53
2019-03-20T18:45:37.103Z,6.47
2019-03-20T18:48:26.255Z,7.07
2019-03-20T18:51:14.978Z,6.10
2019-03-20T18:54:03.737Z,7.67
2019-03-20T18:56:53.241Z,7.53
2019-03-20T18:59:42.650Z,7.30
2019-03-20T19:02:32.331Z,6.67
2019-03-20T19:05:34.214Z,6.80
2019-03-20T19:08:23.218Z,6.80
2019-03-20T19:11:12.594Z,5.60
2019-03-20T19:14:02.530Z,7.77
2019-03-20T19:16:51.877Z,7.67
2019-03-20T19:19:41.475Z,8.13
2019-03-20T19:22:31.214Z,7.40
2019-03-20T19:25:22.042Z,10.03
2019-03-20T19:28:11.720Z,38.70
2019-03-20T19:31:02.298Z,49.10
2019-03-20T19:33:54.036Z,20.87
2019-03-20T19:36:43.911Z,12.97
2019-03-20T19:39:32.401Z,11.57
2019-03-20T19:42:21.836Z,9.70
2019-03-20T19:45:12.264Z,8.60
2019-03-20T19:48:03.930Z,8.50
2019-03-20T19:50:53.369Z,9.27
2019-03-20T19:53:41.918Z,8.47
2019-03-20T19:56:30.894Z,8.60
2019-03-20T19:59:20.517Z,8.93
2019-03-20T20:02:09.496Z,8.93
2019-03-20T20:04:58.512Z,9.50
2019-03-20T20:07:48.067Z,8.63
2019-03-20T20:10:37.308Z,8.87
2019-03-20T20:13:26.328Z,9.13
2019-03-20T20:16:15.079Z,10.10
2019-03-20T20:19:04.310Z,9.57
2019-03-20T20:21:53.669Z,9.50
2019-03-20T20:24:43.502Z,9.73
2019-03-20T20:27:35.658Z,8.63
2019-03-20T20:30:24.780Z,9.57
2019-03-20T20:33:15.094Z,9.93
2019-03-20T20:36:04.570Z,9.03
2019-03-20T20:38:53.279Z,11.37
2019-03-20T20:41:42.434Z,34.73
2019-03-20T20:44:31.653Z,15.37
2019-03-20T20:47:20.246Z,11.93
2019-03-20T20:50:09.373Z,12.30
2019-03-20T20:52:58.908Z,11.57
2019-03-20T20:55:48.498Z,10.47
2019-03-20T20:58:37.531Z,11.43
2019-03-20T21:01:26.494Z,10.77
2019-03-20T21:04:18.714Z,11.60
2019-03-20T21:07:07.514Z,12.33
2019-03-20T21:11:40.592Z,11.17
2019-03-20T21:14:30.401Z,9.57
2019-03-20T21:17:25.698Z,9.50
2019-03-20T21:20:15.716Z,8.60
2019-03-20T21:23:37.942Z,9.63
2019-03-20T21:26:27.600Z,8.13
2019-03-20T21:30:02.044Z,7.90
2019-03-20T21:32:52.581Z,8.30
2019-03-20T21:36:17.354Z,9.23
2019-03-20T21:39:08.676Z,8.10
2019-03-20T21:42:46.253Z,7.40
2019-03-20T21:45:55.037Z,8.43
2019-03-20T21:48:44.500Z,9.87
2019-03-20T21:51:34.763Z,8.80
2019-03-20T21:55:00.486Z,8.80
2019-03-20T21:58:04.965Z,8.83
2019-03-20T22:01:44.915Z,9.13
2019-03-20T22:04:37.964Z,8.57
2019-03-20T22:07:28.599Z,6.90
2019-03-20T22:11:05.583Z,7.80
2019-03-20T22:14:02.494Z,8.20
2019-03-20T22:17:15.435Z,7.97
2019-03-20T22:20:35.049Z,8.17
2019-03-20T22:24:02.609Z,7.73
2019-03-20T22:27:31.071Z,8.17
2019-03-20T22:30:21.336Z,8.03
2019-03-20T22:33:46.975Z,8.20
2019-03-20T22:36:39.974Z,7.57
2019-03-20T22:40:21.320Z,8.60
2019-03-20T22:43:30.157Z,8.50
2019-03-20T22:47:01.780Z,8.87
2019-03-20T22:50:19.075Z,7.87
2019-03-20T22:53:47.100Z,7.33
2019-03-20T22:56:41.544Z,7.33
2019-03-20T22:59:13.767Z,7.00
2019-03-20T23:02:36.872Z,6.90
2019-03-20T23:05:11.670Z,7.73
2019-03-20T23:08:02.046Z,7.50
2019-03-20T23:10:35.047Z,6.77
2019-03-20T23:13:18.502Z,7.57
2019-03-20T23:16:02.553Z,7.20
2019-03-20T23:18:35.455Z,7.47
2019-03-20T23:21:09.554Z,7.33
2019-03-20T23:23:41.589Z,6.60
2019-03-20T23:26:15.521Z,7.23
2019-03-20T23:28:48.661Z,7.20
2019-03-20T23:31:22.744Z,6.50
2019-03-20T23:33:56.332Z,7.30
2019-03-20T23:36:30.771Z,7.43
2019-03-20T23:39:05.647Z,6.67
2019-03-20T23:41:37.832Z,7.60
2019-03-20T23:44:12.544Z,6.13
2019-03-20T23:46:46.777Z,6.77
2019-03-20T23:49:22.363Z,7.20
2019-03-20T23:51:56.803Z,6.60
2019-03-20T23:54:48.416Z,6.93
2019-03-20T23:57:20.960Z,7.87
